Withams, Virginia
Current Conditions -  °F | °C
As of 4:54 PM on Monday 22 Dec 2014 (Local Time) from KWAL Reporting Station
Broken Clouds Broken Clouds  
Wind Chill: 35°   Ceiling: 2400
Heat Index: 43°   Visibility: 8mi
Dew Point: 43°   Wind: 16mph
Humidity: 100%   Direction: 70°ENE
Pressure: 30.07"   Gusts: NA
Location:  37.95°N, 75.58°W
Report Text: KWAL 222154Z AUTO 07014KT 8SM SCT007 BKN024 BKN033 06/06 A3007 RMK AO2 RAB07E50 SLP179 P0001 T00610061
Loading
Personal Weather Stations






























Interactive Weather Map New forecast layout! Learn more

10-Day Weather Forecast

Advertisements
Track Severe Weather on mobile